sensor_id;sensor_type;location;lat;lon;timestamp;pressure;altitude;pressure_sealevel;temperature;humidity
75697;BME280;64312;44.738;20.612;2023-03-14T00:01:47;100080.28;;;7.69;37.30
75697;BME280;64312;44.738;20.612;2023-03-14T00:04:14;100079.28;;;7.70;36.67
75697;BME280;64312;44.738;20.612;2023-03-14T00:06:40;100048.72;;;7.56;36.92
75697;BME280;64312;44.738;20.612;2023-03-14T00:09:06;100050.78;;;7.54;37.16
75697;BME280;64312;44.738;20.612;2023-03-14T00:11:32;99975.00;;;6.99;36.98
75697;BME280;64312;44.738;20.612;2023-03-14T00:13:57;100049.38;;;7.58;36.72
75697;BME280;64312;44.738;20.612;2023-03-14T00:16:25;100063.84;;;7.72;37.41
75697;BME280;64312;44.738;20.612;2023-03-14T00:18:50;100066.16;;;7.75;37.18
75697;BME280;64312;44.738;20.612;2023-03-14T00:21:16;100037.19;;;7.55;37.16
75697;BME280;64312;44.738;20.612;2023-03-14T00:23:42;99955.34;;;7.07;36.66
75697;BME280;64312;44.738;20.612;2023-03-14T00:26:16;100064.13;;;7.77;37.64
75697;BME280;64312;44.738;20.612;2023-03-14T00:28:43;100081.88;;;7.78;37.28
75697;BME280;64312;44.738;20.612;2023-03-14T00:31:11;100029.78;;;7.57;37.29
75697;BME280;64312;44.738;20.612;2023-03-14T00:33:39;99892.06;;;6.68;37.60
75697;BME280;64312;44.738;20.612;2023-03-14T00:36:07;100063.13;;;7.78;37.64
75697;BME280;64312;44.738;20.612;2023-03-14T00:38:36;100044.97;;;7.65;36.85
75697;BME280;64312;44.738;20.612;2023-03-14T00:41:05;100079.03;;;7.79;36.37
75697;BME280;64312;44.738;20.612;2023-03-14T00:43:32;100066.47;;;7.80;36.98
75697;BME280;64312;44.738;20.612;2023-03-14T00:45:58;100005.22;;;7.54;37.00
75697;BME280;64312;44.738;20.612;2023-03-14T00:48:26;100003.78;;;7.43;36.88
75697;BME280;64312;44.738;20.612;2023-03-14T00:50:51;99978.22;;;7.41;36.90
75697;BME280;64312;44.738;20.612;2023-03-14T00:53:17;99942.22;;;7.20;37.39
75697;BME280;64312;44.738;20.612;2023-03-14T00:55:44;100049.81;;;7.84;37.82
75697;BME280;64312;44.738;20.612;2023-03-14T00:58:11;100069.41;;;7.85;37.13
75697;BME280;64312;44.738;20.612;2023-03-14T01:00:37;100002.94;;;7.66;36.61
75697;BME280;64312;44.738;20.612;2023-03-14T01:03:04;100012.78;;;7.73;36.89
75697;BME280;64312;44.738;20.612;2023-03-14T01:05:30;99992.41;;;7.64;36.67
75697;BME280;64312;44.738;20.612;2023-03-14T01:07:55;99943.88;;;7.44;36.94
75697;BME280;64312;44.738;20.612;2023-03-14T01:10:22;100032.19;;;7.90;36.66
75697;BME280;64312;44.738;20.612;2023-03-14T01:12:48;99977.72;;;7.60;36.70
75697;BME280;64312;44.738;20.612;2023-03-14T01:15:14;99960.78;;;7.59;36.92
75697;BME280;64312;44.738;20.612;2023-03-14T01:17:40;100006.72;;;7.94;36.39
75697;BME280;64312;44.738;20.612;2023-03-14T01:20:07;99959.50;;;7.55;36.04
75697;BME280;64312;44.738;20.612;2023-03-14T01:22:38;100003.84;;;7.96;36.08
75697;BME280;64312;44.738;20.612;2023-03-14T01:25:10;99983.03;;;7.83;36.05
75697;BME280;64312;44.738;20.612;2023-03-14T01:27:36;99943.16;;;7.65;35.92
75697;BME280;64312;44.738;20.612;2023-03-14T01:30:03;99959.97;;;7.59;36.26
75697;BME280;64312;44.738;20.612;2023-03-14T01:32:31;99942.41;;;7.56;36.48
75697;BME280;64312;44.738;20.612;2023-03-14T01:34:56;99965.91;;;7.69;35.89
75697;BME280;64312;44.738;20.612;2023-03-14T01:37:22;99678.06;;;6.16;36.35
75697;BME280;64312;44.738;20.612;2023-03-14T01:39:48;99947.16;;;7.84;36.03
75697;BME280;64312;44.738;20.612;2023-03-14T01:42:14;99960.94;;;7.96;36.65
75697;BME280;64312;44.738;20.612;2023-03-14T01:47:20;99714.34;;;6.33;36.94
75697;BME280;64312;44.738;20.612;2023-03-14T01:50:06;99922.09;;;7.62;36.95
75697;BME280;64312;44.738;20.612;2023-03-14T01:52:39;99921.28;;;7.62;36.32
75697;BME280;64312;44.738;20.612;2023-03-14T01:55:17;99980.81;;;7.86;36.43
75697;BME280;64312;44.738;20.612;2023-03-14T01:57:59;99847.63;;;7.28;36.51
75697;BME280;64312;44.738;20.612;2023-03-14T02:00:28;99918.13;;;7.73;36.30
75697;BME280;64312;44.738;20.612;2023-03-14T02:02:57;99936.72;;;7.89;37.08
75697;BME280;64312;44.738;20.612;2023-03-14T02:05:32;99938.59;;;7.88;36.87
75697;BME280;64312;44.738;20.612;2023-03-14T02:08:06;99787.38;;;6.94;36.99
75697;BME280;64312;44.738;20.612;2023-03-14T02:10:48;99760.47;;;6.73;36.45
75697;BME280;64312;44.738;20.612;2023-03-14T02:13:17;99894.56;;;7.53;37.20
75697;BME280;64312;44.738;20.612;2023-03-14T02:16:01;99903.44;;;7.54;37.18
75697;BME280;64312;44.738;20.612;2023-03-14T02:18:50;99713.44;;;6.41;37.39
75697;BME280;64312;44.738;20.612;2023-03-14T02:21:55;99926.81;;;7.60;36.94
75697;BME280;64312;44.738;20.612;2023-03-14T02:27:35;99892.44;;;7.49;37.40
75697;BME280;64312;44.738;20.612;2023-03-14T02:30:18;99923.50;;;7.73;37.30
75697;BME280;64312;44.738;20.612;2023-03-14T02:32:47;99921.00;;;7.71;37.51
75697;BME280;64312;44.738;20.612;2023-03-14T02:35:18;99904.09;;;7.56;38.02
75697;BME280;64312;44.738;20.612;2023-03-14T02:40:38;99873.53;;;7.27;37.91
75697;BME280;64312;44.738;20.612;2023-03-14T02:43:03;99926.94;;;7.67;38.01
75697;BME280;64312;44.738;20.612;2023-03-14T02:45:37;99936.78;;;7.66;37.54
75697;BME280;64312;44.738;20.612;2023-03-14T02:50:41;99868.03;;;7.29;38.44
75697;BME280;64312;44.738;20.612;2023-03-14T02:53:07;99942.34;;;7.65;37.76
75697;BME280;64312;44.738;20.612;2023-03-14T02:55:33;99924.00;;;7.53;38.19
75697;BME280;64312;44.738;20.612;2023-03-14T02:58:04;99935.13;;;7.65;38.33
75697;BME280;64312;44.738;20.612;2023-03-14T03:00:30;99767.69;;;6.49;38.24
75697;BME280;64312;44.738;20.612;2023-03-14T03:02:56;99932.63;;;7.64;38.62
75697;BME280;64312;44.738;20.612;2023-03-14T03:05:22;99931.81;;;7.63;38.41
75697;BME280;64312;44.738;20.612;2023-03-14T03:07:47;99872.81;;;7.33;39.10
75697;BME280;64312;44.738;20.612;2023-03-14T03:10:13;99891.78;;;7.47;38.53
75697;BME280;64312;44.738;20.612;2023-03-14T03:12:38;99908.22;;;7.44;38.99
75697;BME280;64312;44.738;20.612;2023-03-14T03:15:05;99909.25;;;7.43;38.87
75697;BME280;64312;44.738;20.612;2023-03-14T03:17:34;99851.16;;;7.05;39.15
75697;BME280;64312;44.738;20.612;2023-03-14T03:19:59;99918.84;;;7.52;39.04
75697;BME280;64312;44.738;20.612;2023-03-14T03:22:25;99872.78;;;7.19;39.11
75697;BME280;64312;44.738;20.612;2023-03-14T03:24:51;99930.56;;;7.36;39.18
75697;BME280;64312;44.738;20.612;2023-03-14T03:27:16;99920.03;;;7.35;39.10
75697;BME280;64312;44.738;20.612;2023-03-14T03:29:42;99884.53;;;7.18;38.87
75697;BME280;64312;44.738;20.612;2023-03-14T03:32:07;99896.47;;;7.30;39.46
75697;BME280;64312;44.738;20.612;2023-03-14T03:34:33;99851.06;;;6.99;39.12
75697;BME280;64312;44.738;20.612;2023-03-14T03:37:00;99918.75;;;7.45;38.76
75697;BME280;64312;44.738;20.612;2023-03-14T03:39:29;99884.81;;;7.23;39.00
75697;BME280;64312;44.738;20.612;2023-03-14T03:41:55;99914.19;;;7.31;39.32
75697;BME280;64312;44.738;20.612;2023-03-14T03:44:21;99723.63;;;6.22;39.70
75697;BME280;64312;44.738;20.612;2023-03-14T03:46:47;99912.03;;;7.26;39.21
75697;BME280;64312;44.738;20.612;2023-03-14T03:49:13;99883.91;;;7.07;39.67
75697;BME280;64312;44.738;20.612;2023-03-14T03:51:39;99903.59;;;7.38;39.44
75697;BME280;64312;44.738;20.612;2023-03-14T03:54:05;99855.50;;;7.06;39.98
75697;BME280;64312;44.738;20.612;2023-03-14T03:56:32;99894.09;;;7.35;39.74
75697;BME280;64312;44.738;20.612;2023-03-14T03:58:58;99483.41;;;4.83;39.75
75697;BME280;64312;44.738;20.612;2023-03-14T04:01:24;99873.16;;;7.16;39.79
75697;BME280;64312;44.738;20.612;2023-03-14T04:03:52;99903.19;;;7.26;39.75
75697;BME280;64312;44.738;20.612;2023-03-14T04:06:19;99863.59;;;6.98;39.78
75697;BME280;64312;44.738;20.612;2023-03-14T04:08:46;99601.41;;;5.48;39.43
75697;BME280;64312;44.738;20.612;2023-03-14T04:11:25;99852.91;;;6.98;39.62
75697;BME280;64312;44.738;20.612;2023-03-14T04:14:02;99883.16;;;6.99;39.77
75697;BME280;64312;44.738;20.612;2023-03-14T04:16:29;99841.59;;;6.88;39.67
75697;BME280;64312;44.738;20.612;2023-03-14T04:19:03;99849.03;;;7.01;39.81
75697;BME280;64312;44.738;20.612;2023-03-14T04:21:30;99904.00;;;7.26;40.57
75697;BME280;64312;44.738;20.612;2023-03-14T04:23:56;99896.81;;;7.27;40.18
75697;BME280;64312;44.738;20.612;2023-03-14T04:26:23;99633.16;;;5.65;40.31
75697;BME280;64312;44.738;20.612;2023-03-14T04:28:49;99897.47;;;7.29;40.44
75697;BME280;64312;44.738;20.612;2023-03-14T04:31:18;99712.69;;;6.09;40.06
75697;BME280;64312;44.738;20.612;2023-03-14T04:33:45;99912.03;;;7.26;40.53
75697;BME280;64312;44.738;20.612;2023-03-14T04:36:12;99860.63;;;6.93;40.11
75697;BME280;64312;44.738;20.612;2023-03-14T04:38:38;99926.44;;;7.25;40.00
75697;BME280;64312;44.738;20.612;2023-03-14T04:41:06;99899.69;;;7.25;40.48
75697;BME280;64312;44.738;20.612;2023-03-14T04:43:32;99888.03;;;7.18;40.57
75697;BME280;64312;44.738;20.612;2023-03-14T04:46:04;99849.06;;;6.78;40.50
75697;BME280;64312;44.738;20.612;2023-03-14T04:48:30;99801.78;;;6.47;40.33
75697;BME280;64312;44.738;20.612;2023-03-14T04:50:56;99880.41;;;7.07;40.57
75697;BME280;64312;44.738;20.612;2023-03-14T04:53:22;99870.69;;;6.91;40.72
75697;BME280;64312;44.738;20.612;2023-03-14T04:55:52;99811.50;;;6.71;40.12
75697;BME280;64312;44.738;20.612;2023-03-14T04:58:20;99631.16;;;5.67;40.73
75697;BME280;64312;44.738;20.612;2023-03-14T05:00:47;99640.63;;;5.70;40.69
75697;BME280;64312;44.738;20.612;2023-03-14T05:03:32;99864.69;;;6.89;40.98
75697;BME280;64312;44.738;20.612;2023-03-14T05:06:14;99887.72;;;7.13;39.81
75697;BME280;64312;44.738;20.612;2023-03-14T05:09:07;99676.53;;;5.90;39.75
75697;BME280;64312;44.738;20.612;2023-03-14T05:11:58;99865.75;;;7.03;39.77
75697;BME280;64312;44.738;20.612;2023-03-14T05:14:49;99875.75;;;7.24;40.10
75697;BME280;64312;44.738;20.612;2023-03-14T05:17:24;99764.13;;;6.57;40.52
75697;BME280;64312;44.738;20.612;2023-03-14T05:20:10;99840.75;;;7.11;40.55
75697;BME280;64312;44.738;20.612;2023-03-14T05:23:04;99883.28;;;7.43;41.34
75697;BME280;64312;44.738;20.612;2023-03-14T05:25:48;99789.97;;;7.02;41.67
75697;BME280;64312;44.738;20.612;2023-03-14T05:28:34;99636.44;;;6.21;41.34
75697;BME280;64312;44.738;20.612;2023-03-14T05:31:21;99776.31;;;7.27;40.82
75697;BME280;64312;44.738;20.612;2023-03-14T05:34:16;99805.81;;;7.56;41.41
75697;BME280;64312;44.738;20.612;2023-03-14T05:37:02;99770.81;;;7.43;41.47
75697;BME280;64312;44.738;20.612;2023-03-14T05:39:38;99567.78;;;6.22;41.45
75697;BME280;64312;44.738;20.612;2023-03-14T05:42:23;99804.78;;;7.72;40.72
75697;BME280;64312;44.738;20.612;2023-03-14T05:45:10;99797.19;;;7.76;40.58
75697;BME280;64312;44.738;20.612;2023-03-14T05:47:48;99811.41;;;7.91;40.51
75697;BME280;64312;44.738;20.612;2023-03-14T05:50:37;99794.66;;;8.04;39.70
75697;BME280;64312;44.738;20.612;2023-03-14T05:53:11;99612.16;;;7.05;39.23
75697;BME280;64312;44.738;20.612;2023-03-14T05:55:38;99811.13;;;8.37;39.80
75697;BME280;64312;44.738;20.612;2023-03-14T05:58:13;99588.78;;;7.14;38.82
75697;BME280;64312;44.738;20.612;2023-03-14T06:01:04;99813.19;;;8.56;38.56
75697;BME280;64312;44.738;20.612;2023-03-14T06:03:51;99722.47;;;8.24;39.47
75697;BME280;64312;44.738;20.612;2023-03-14T06:06:16;99731.78;;;8.43;39.11
75697;BME280;64312;44.738;20.612;2023-03-14T06:08:42;99798.63;;;8.87;39.86
75697;BME280;64312;44.738;20.612;2023-03-14T06:11:10;99670.31;;;8.05;38.86
75697;BME280;64312;44.738;20.612;2023-03-14T06:13:35;99782.38;;;8.95;38.54
75697;BME280;64312;44.738;20.612;2023-03-14T06:16:01;99577.03;;;7.94;39.08
75697;BME280;64312;44.738;20.612;2023-03-14T06:18:27;99733.47;;;9.00;38.25
75697;BME280;64312;44.738;20.612;2023-03-14T06:20:54;99794.13;;;9.50;38.14
75697;BME280;64312;44.738;20.612;2023-03-14T06:23:24;99769.13;;;9.49;37.72
75697;BME280;64312;44.738;20.612;2023-03-14T06:25:50;99780.38;;;9.66;37.66
75697;BME280;64312;44.738;20.612;2023-03-14T06:28:16;99675.56;;;9.18;37.83
75697;BME280;64312;44.738;20.612;2023-03-14T06:30:43;99727.25;;;9.68;36.55
75697;BME280;64312;44.738;20.612;2023-03-14T06:33:10;99521.44;;;8.58;36.43
75697;BME280;64312;44.738;20.612;2023-03-14T06:35:36;99725.69;;;9.94;36.46
75697;BME280;64312;44.738;20.612;2023-03-14T06:38:02;99720.16;;;10.15;36.46
75697;BME280;64312;44.738;20.612;2023-03-14T06:40:27;99739.69;;;10.44;36.34
75697;BME280;64312;44.738;20.612;2023-03-14T06:42:58;99749.66;;;10.70;35.78
75697;BME280;64312;44.738;20.612;2023-03-14T06:45:26;99723.56;;;10.57;35.62
75697;BME280;64312;44.738;20.612;2023-03-14T06:47:52;99751.09;;;10.85;35.47
75697;BME280;64312;44.738;20.612;2023-03-14T06:50:22;99664.13;;;10.52;34.84
75697;BME280;64312;44.738;20.612;2023-03-14T06:52:48;99755.63;;;11.05;34.60
75697;BME280;64312;44.738;20.612;2023-03-14T06:55:19;99560.63;;;9.95;34.93
75697;BME280;64312;44.738;20.612;2023-03-14T06:57:46;99593.72;;;10.22;34.97
75697;BME280;64312;44.738;20.612;2023-03-14T07:00:13;99715.00;;;11.13;34.56
75697;BME280;64312;44.738;20.612;2023-03-14T07:02:39;99765.47;;;11.64;34.20
75697;BME280;64312;44.738;20.612;2023-03-14T07:05:06;99661.94;;;11.13;34.21
75697;BME280;64312;44.738;20.612;2023-03-14T07:07:33;99737.44;;;11.72;34.00
75697;BME280;64312;44.738;20.612;2023-03-14T07:09:58;99689.63;;;11.54;33.80
75697;BME280;64312;44.738;20.612;2023-03-14T07:12:26;99745.13;;;11.68;34.02
75697;BME280;64312;44.738;20.612;2023-03-14T07:14:52;99584.28;;;11.04;33.91
75697;BME280;64312;44.738;20.612;2023-03-14T07:17:17;99767.28;;;12.28;34.09
75697;BME280;64312;44.738;20.612;2023-03-14T07:19:43;99775.75;;;12.38;33.64
75697;BME280;64312;44.738;20.612;2023-03-14T07:22:08;99733.66;;;12.31;33.74
75697;BME280;64312;44.738;20.612;2023-03-14T07:24:34;99758.81;;;12.56;33.78
75697;BME280;64312;44.738;20.612;2023-03-14T07:27:00;99717.28;;;12.26;33.87
75697;BME280;64312;44.738;20.612;2023-03-14T07:29:25;99701.81;;;12.39;33.85
75697;BME280;64312;44.738;20.612;2023-03-14T07:31:51;99744.75;;;12.72;33.49
75697;BME280;64312;44.738;20.612;2023-03-14T07:34:19;99728.25;;;12.62;33.24
75697;BME280;64312;44.738;20.612;2023-03-14T07:36:45;99733.69;;;12.81;33.54
75697;BME280;64312;44.738;20.612;2023-03-14T07:39:10;99679.66;;;12.56;33.09
75697;BME280;64312;44.738;20.612;2023-03-14T07:41:48;99730.78;;;13.00;33.06
75697;BME280;64312;44.738;20.612;2023-03-14T07:44:42;99739.84;;;13.13;33.28
75697;BME280;64312;44.738;20.612;2023-03-14T07:47:08;99659.00;;;12.68;32.57
75697;BME280;64312;44.738;20.612;2023-03-14T07:49:33;99582.78;;;12.23;32.99
75697;BME280;64312;44.738;20.612;2023-03-14T07:51:59;99711.56;;;13.15;32.45
75697;BME280;64312;44.738;20.612;2023-03-14T07:54:25;99721.88;;;13.43;32.53
75697;BME280;64312;44.738;20.612;2023-03-14T07:56:51;99744.25;;;13.69;32.73
75697;BME280;64312;44.738;20.612;2023-03-14T07:59:19;99731.88;;;13.79;32.60
75697;BME280;64312;44.738;20.612;2023-03-14T08:01:45;99564.56;;;12.98;31.86
75697;BME280;64312;44.738;20.612;2023-03-14T08:04:10;99668.47;;;13.57;32.01
75697;BME280;64312;44.738;20.612;2023-03-14T08:06:36;99708.66;;;14.02;32.29
75697;BME280;64312;44.738;20.612;2023-03-14T08:09:03;99722.94;;;14.09;31.86
75697;BME280;64312;44.738;20.612;2023-03-14T08:11:29;99677.81;;;13.91;31.24
75697;BME280;64312;44.738;20.612;2023-03-14T08:13:54;99697.75;;;14.08;31.78
75697;BME280;64312;44.738;20.612;2023-03-14T08:16:21;99674.03;;;13.92;31.92
75697;BME280;64312;44.738;20.612;2023-03-14T08:18:47;99284.91;;;11.69;31.43
75697;BME280;64312;44.738;20.612;2023-03-14T08:21:13;99669.16;;;14.13;30.86
75697;BME280;64312;44.738;20.612;2023-03-14T08:23:38;99625.94;;;13.94;31.49
75697;BME280;64312;44.738;20.612;2023-03-14T08:26:04;99627.22;;;14.03;31.48
75697;BME280;64312;44.738;20.612;2023-03-14T08:28:30;99496.28;;;13.39;32.20
75697;BME280;64312;44.738;20.612;2023-03-14T08:31:00;99697.81;;;14.74;32.67
75697;BME280;64312;44.738;20.612;2023-03-14T08:33:28;99520.81;;;13.68;31.91
75697;BME280;64312;44.738;20.612;2023-03-14T08:35:55;99590.09;;;14.22;32.17
75697;BME280;64312;44.738;20.612;2023-03-14T08:38:21;99643.53;;;14.69;31.52
75697;BME280;64312;44.738;20.612;2023-03-14T08:40:47;99550.88;;;14.01;31.22
75697;BME280;64312;44.738;20.612;2023-03-14T08:43:13;99631.38;;;14.59;30.87
75697;BME280;64312;44.738;20.612;2023-03-14T08:45:38;99647.06;;;14.69;31.09
75697;BME280;64312;44.738;20.612;2023-03-14T08:48:04;99697.47;;;15.05;31.03
75697;BME280;64312;44.738;20.612;2023-03-14T08:50:30;99654.56;;;14.90;30.44
75697;BME280;64312;44.738;20.612;2023-03-14T08:52:55;99626.78;;;14.83;30.17
75697;BME280;64312;44.738;20.612;2023-03-14T08:55:26;99667.75;;;15.22;30.73
75697;BME280;64312;44.738;20.612;2023-03-14T08:57:53;99686.34;;;15.30;30.36
75697;BME280;64312;44.738;20.612;2023-03-14T09:00:19;99659.00;;;15.32;29.96
75697;BME280;64312;44.738;20.612;2023-03-14T09:02:45;99587.66;;;14.91;30.61
75697;BME280;64312;44.738;20.612;2023-03-14T09:05:12;99659.09;;;15.37;30.71
75697;BME280;64312;44.738;20.612;2023-03-14T09:07:39;99651.16;;;15.59;29.94
75697;BME280;64312;44.738;20.612;2023-03-14T09:10:06;99650.56;;;15.68;30.03
75697;BME280;64312;44.738;20.612;2023-03-14T09:12:32;99603.19;;;15.48;29.78
75697;BME280;64312;44.738;20.612;2023-03-14T09:14:58;99630.88;;;15.90;29.11
75697;BME280;64312;44.738;20.612;2023-03-14T09:17:23;99544.91;;;15.50;29.50
75697;BME280;64312;44.738;20.612;2023-03-14T09:19:49;99619.56;;;16.10;29.36
75697;BME280;64312;44.738;20.612;2023-03-14T09:22:15;99613.22;;;16.21;29.51
75697;BME280;64312;44.738;20.612;2023-03-14T09:24:41;99600.31;;;16.28;29.42
75697;BME280;64312;44.738;20.612;2023-03-14T09:27:07;99569.84;;;16.09;29.00
75697;BME280;64312;44.738;20.612;2023-03-14T09:29:33;99562.97;;;16.18;29.09
75697;BME280;64312;44.738;20.612;2023-03-14T09:31:59;99590.84;;;16.47;29.04
75697;BME280;64312;44.738;20.612;2023-03-14T09:34:25;99590.66;;;16.54;29.20
75697;BME280;64312;44.738;20.612;2023-03-14T09:36:50;99409.38;;;15.55;28.99
75697;BME280;64312;44.738;20.612;2023-03-14T09:39:16;99582.28;;;16.72;29.16
75697;BME280;64312;44.738;20.612;2023-03-14T09:41:50;99475.91;;;16.08;28.60
75697;BME280;64312;44.738;20.612;2023-03-14T09:44:35;99582.16;;;16.84;29.05
75697;BME280;64312;44.738;20.612;2023-03-14T09:47:06;99560.56;;;16.94;28.81
75697;BME280;64312;44.738;20.612;2023-03-14T09:49:42;99524.19;;;16.78;28.48
75697;BME280;64312;44.738;20.612;2023-03-14T09:52:37;99547.09;;;17.04;28.41
75697;BME280;64312;44.738;20.612;2023-03-14T09:55:14;99528.31;;;17.03;28.61
75697;BME280;64312;44.738;20.612;2023-03-14T09:57:41;99522.53;;;16.99;28.55
75697;BME280;64312;44.738;20.612;2023-03-14T10:00:30;99544.41;;;17.31;28.04
75697;BME280;64312;44.738;20.612;2023-03-14T10:03:15;99490.66;;;17.17;28.15
75697;BME280;64312;44.738;20.612;2023-03-14T10:05:45;99502.63;;;17.43;27.95
75697;BME280;64312;44.738;20.612;2023-03-14T10:08:11;99439.81;;;17.17;27.75
75697;BME280;64312;44.738;20.612;2023-03-14T10:10:38;99510.50;;;17.66;27.33
75697;BME280;64312;44.738;20.612;2023-03-14T10:13:33;99506.34;;;17.85;28.00
75697;BME280;64312;44.738;20.612;2023-03-14T10:16:04;99506.41;;;17.96;27.86
75697;BME280;64312;44.738;20.612;2023-03-14T10:18:33;99455.34;;;17.76;27.43
75697;BME280;64312;44.738;20.612;2023-03-14T10:21:20;99487.44;;;18.06;27.53
75697;BME280;64312;44.738;20.612;2023-03-14T10:23:47;99404.88;;;17.68;27.37
75697;BME280;64312;44.738;20.612;2023-03-14T10:26:15;99388.50;;;17.63;27.65
75697;BME280;64312;44.738;20.612;2023-03-14T10:28:46;99446.03;;;18.09;27.00
75697;BME280;64312;44.738;20.612;2023-03-14T10:31:14;99385.16;;;17.83;27.38
75697;BME280;64312;44.738;20.612;2023-03-14T10:33:40;99457.06;;;18.24;27.23
75697;BME280;64312;44.738;20.612;2023-03-14T10:36:22;99411.22;;;18.11;27.42
75697;BME280;64312;44.738;20.612;2023-03-14T10:38:49;99438.03;;;18.29;27.21
75697;BME280;64312;44.738;20.612;2023-03-14T10:41:26;99403.22;;;17.99;28.04
75697;BME280;64312;44.738;20.612;2023-03-14T10:44:01;99423.81;;;18.27;27.94
75697;BME280;64312;44.738;20.612;2023-03-14T10:46:31;99456.63;;;18.48;28.25
75697;BME280;64312;44.738;20.612;2023-03-14T10:49:28;99299.56;;;17.69;28.78
75697;BME280;64312;44.738;20.612;2023-03-14T10:51:54;99357.81;;;18.15;28.23
75697;BME280;64312;44.738;20.612;2023-03-14T10:54:21;99418.25;;;18.59;27.50
75697;BME280;64312;44.738;20.612;2023-03-14T10:56:58;99146.50;;;16.94;27.47
75697;BME280;64312;44.738;20.612;2023-03-14T10:59:29;99365.03;;;18.41;27.39
75697;BME280;64312;44.738;20.612;2023-03-14T11:07:43;98905.31;;;15.79;26.69
75697;BME280;64312;44.738;20.612;2023-03-14T11:10:26;99363.84;;;18.85;26.19
75697;BME280;64312;44.738;20.612;2023-03-14T11:13:25;99369.06;;;19.02;26.17
75697;BME280;64312;44.738;20.612;2023-03-14T11:27:25;99350.50;;;19.49;25.37
75697;BME280;64312;44.738;20.612;2023-03-14T11:32:39;99338.81;;;19.64;25.06
75697;BME280;64312;44.738;20.612;2023-03-14T11:35:20;99318.59;;;19.65;24.93
75697;BME280;64312;44.738;20.612;2023-03-14T11:38:12;99298.34;;;19.56;24.38
75697;BME280;64312;44.738;20.612;2023-03-14T11:40:39;99313.66;;;19.67;24.40
75697;BME280;64312;44.738;20.612;2023-03-14T11:43:24;99298.63;;;19.75;24.35
75697;BME280;64312;44.738;20.612;2023-03-14T11:45:55;99287.69;;;19.85;24.40
75697;BME280;64312;44.738;20.612;2023-03-14T11:48:45;99253.03;;;19.70;24.12
75697;BME280;64312;44.738;20.612;2023-03-14T11:51:17;99271.03;;;19.82;24.59
75697;BME280;64312;44.738;20.612;2023-03-14T11:54:02;99278.84;;;20.09;24.05
75697;BME280;64312;44.738;20.612;2023-03-14T12:01:58;99271.56;;;20.43;24.19
75697;BME280;64312;44.738;20.612;2023-03-14T12:04:47;99254.34;;;20.48;23.81
75697;BME280;64312;44.738;20.612;2023-03-14T12:07:31;99218.56;;;20.39;23.91
75697;BME280;64312;44.738;20.612;2023-03-14T12:10:02;99234.59;;;20.61;23.99
75697;BME280;64312;44.738;20.612;2023-03-14T12:12:29;99215.22;;;20.52;24.12
75697;BME280;64312;44.738;20.612;2023-03-14T12:15:00;99213.75;;;20.65;23.90
75697;BME280;64312;44.738;20.612;2023-03-14T12:17:35;99180.81;;;20.41;24.26
75697;BME280;64312;44.738;20.612;2023-03-14T12:20:18;99067.59;;;19.79;24.08
75697;BME280;64312;44.738;20.612;2023-03-14T12:22:50;99205.25;;;20.67;23.91
75697;BME280;64312;44.738;20.612;2023-03-14T12:25:26;99153.75;;;20.40;23.88
75697;BME280;64312;44.738;20.612;2023-03-14T12:30:39;99178.78;;;20.62;23.34
75697;BME280;64312;44.738;20.612;2023-03-14T12:35:51;99181.53;;;20.91;23.29
75697;BME280;64312;44.738;20.612;2023-03-14T12:38:27;99103.03;;;20.63;23.66
75697;BME280;64312;44.738;20.612;2023-03-14T12:41:05;99161.31;;;21.16;23.77
75697;BME280;64312;44.738;20.612;2023-03-14T12:43:34;98922.91;;;19.69;23.99
75697;BME280;64312;44.738;20.612;2023-03-14T12:48:45;99145.03;;;21.30;23.57
75697;BME280;64312;44.738;20.612;2023-03-14T12:51:16;99004.53;;;20.39;23.10
75697;BME280;64312;44.738;20.612;2023-03-14T13:00:11;99116.00;;;21.05;23.26
75697;BME280;64312;44.738;20.612;2023-03-14T13:02:42;99102.09;;;21.01;22.88
75697;BME280;64312;44.738;20.612;2023-03-14T13:05:11;99134.13;;;21.25;22.80
75697;BME280;64312;44.738;20.612;2023-03-14T13:10:27;99116.31;;;21.27;22.94
75697;BME280;64312;44.738;20.612;2023-03-14T13:13:15;99136.94;;;21.20;22.44
75697;BME280;64312;44.738;20.612;2023-03-14T13:15:45;99113.25;;;21.05;22.68
75697;BME280;64312;44.738;20.612;2023-03-14T13:18:58;99106.38;;;21.13;22.59
75697;BME280;64312;44.738;20.612;2023-03-14T13:21:19;99087.34;;;20.97;22.55
75697;BME280;64312;44.738;20.612;2023-03-14T13:26:41;99130.09;;;20.93;22.68
75697;BME280;64312;44.738;20.612;2023-03-14T13:29:23;99109.53;;;20.96;22.17
75697;BME280;64312;44.738;20.612;2023-03-14T13:31:55;99014.59;;;20.43;22.74
75697;BME280;64312;44.738;20.612;2023-03-14T13:34:33;99097.78;;;20.95;22.55
75697;BME280;64312;44.738;20.612;2023-03-14T13:37:00;98981.38;;;20.31;22.74
75697;BME280;64312;44.738;20.612;2023-03-14T13:39:27;99115.44;;;21.08;23.36
75697;BME280;64312;44.738;20.612;2023-03-14T13:41:58;99091.63;;;21.08;23.77
75697;BME280;64312;44.738;20.612;2023-03-14T13:44:36;99087.88;;;20.99;23.54
75697;BME280;64312;44.738;20.612;2023-03-14T13:47:05;99066.56;;;20.72;23.62
75697;BME280;64312;44.738;20.612;2023-03-14T13:49:32;99040.94;;;20.63;24.10
75697;BME280;64312;44.738;20.612;2023-03-14T13:52:01;99014.84;;;20.47;26.97
75697;BME280;64312;44.738;20.612;2023-03-14T13:54:27;98953.13;;;20.12;24.76
75697;BME280;64312;44.738;20.612;2023-03-14T13:57:01;99068.09;;;20.83;24.00
75697;BME280;64312;44.738;20.612;2023-03-14T13:59:30;99053.44;;;20.74;24.05
75697;BME280;64312;44.738;20.612;2023-03-14T14:01:57;98875.94;;;19.72;23.60
75697;BME280;64312;44.738;20.612;2023-03-14T14:04:26;99043.47;;;20.83;23.35
75697;BME280;64312;44.738;20.612;2023-03-14T14:07:09;99026.13;;;20.69;23.36
75697;BME280;64312;44.738;20.612;2023-03-14T14:09:39;99041.78;;;20.88;23.46
75697;BME280;64312;44.738;20.612;2023-03-14T14:14:40;98990.97;;;20.81;23.53